sensor_id;sensor_type;location;lat;lon;timestamp;P1;durP1;ratioP1;P2;durP2;ratioP2
46284;SDS011;32018;59.182;18.148;2023-09-19T00:02:11;2.58;;;2.38;;
46284;SDS011;32018;59.182;18.148;2023-09-19T00:04:37;3.47;;;2.50;;
46284;SDS011;32018;59.182;18.148;2023-09-19T00:07:04;2.25;;;2.03;;
46284;SDS011;32018;59.182;18.148;2023-09-19T00:09:30;7.43;;;5.20;;
46284;SDS011;32018;59.182;18.148;2023-09-19T00:11:55;4.03;;;3.63;;
46284;SDS011;32018;59.182;18.148;2023-09-19T00:14:20;1.47;;;1.37;;
46284;SDS011;32018;59.182;18.148;2023-09-19T00:16:49;2.78;;;2.38;;
46284;SDS011;32018;59.182;18.148;2023-09-19T00:19:14;7.05;;;4.95;;
46284;SDS011;32018;59.182;18.148;2023-09-19T00:21:41;3.13;;;2.92;;
46284;SDS011;32018;59.182;18.148;2023-09-19T00:24:06;3.10;;;2.88;;
46284;SDS011;32018;59.182;18.148;2023-09-19T00:26:33;2.65;;;2.25;;
46284;SDS011;32018;59.182;18.148;2023-09-19T00:28:59;3.28;;;2.92;;
46284;SDS011;32018;59.182;18.148;2023-09-19T00:31:33;4.75;;;3.90;;
46284;SDS011;32018;59.182;18.148;2023-09-19T00:33:58;3.28;;;2.97;;
46284;SDS011;32018;59.182;18.148;2023-09-19T00:36:25;5.60;;;3.42;;
46284;SDS011;32018;59.182;18.148;2023-09-19T00:38:50;4.57;;;4.18;;
46284;SDS011;32018;59.182;18.148;2023-09-19T00:41:15;4.23;;;3.53;;
46284;SDS011;32018;59.182;18.148;2023-09-19T00:43:40;3.00;;;2.77;;
46284;SDS011;32018;59.182;18.148;2023-09-19T00:46:05;3.20;;;2.90;;
46284;SDS011;32018;59.182;18.148;2023-09-19T00:48:31;7.38;;;6.50;;
46284;SDS011;32018;59.182;18.148;2023-09-19T00:51:02;4.35;;;3.95;;
46284;SDS011;32018;59.182;18.148;2023-09-19T00:53:27;8.85;;;5.50;;
46284;SDS011;32018;59.182;18.148;2023-09-19T00:55:53;8.02;;;6.10;;
46284;SDS011;32018;59.182;18.148;2023-09-19T00:58:18;3.78;;;3.45;;
46284;SDS011;32018;59.182;18.148;2023-09-19T01:00:44;6.25;;;3.95;;
46284;SDS011;32018;59.182;18.148;2023-09-19T01:03:10;2.90;;;2.70;;
46284;SDS011;32018;59.182;18.148;2023-09-19T01:05:35;5.00;;;4.60;;
46284;SDS011;32018;59.182;18.148;2023-09-19T01:08:00;6.95;;;6.30;;
46284;SDS011;32018;59.182;18.148;2023-09-19T01:10:26;4.75;;;4.35;;
46284;SDS011;32018;59.182;18.148;2023-09-19T01:15:28;5.75;;;5.22;;
46284;SDS011;32018;59.182;18.148;2023-09-19T01:23:21;7.20;;;6.10;;
46284;SDS011;32018;59.182;18.148;2023-09-19T01:31:06;4.75;;;4.07;;
46284;SDS011;32018;59.182;18.148;2023-09-19T01:36:20;6.55;;;6.03;;
46284;SDS011;32018;59.182;18.148;2023-09-19T01:38:48;5.70;;;5.13;;
46284;SDS011;32018;59.182;18.148;2023-09-19T01:41:13;4.60;;;3.75;;
46284;SDS011;32018;59.182;18.148;2023-09-19T01:43:42;5.15;;;4.75;;
46284;SDS011;32018;59.182;18.148;2023-09-19T01:46:29;7.65;;;7.05;;
46284;SDS011;32018;59.182;18.148;2023-09-19T01:51:39;4.72;;;4.25;;
46284;SDS011;32018;59.182;18.148;2023-09-19T01:54:11;3.63;;;3.35;;
46284;SDS011;32018;59.182;18.148;2023-09-19T01:56:51;5.78;;;5.30;;
46284;SDS011;32018;59.182;18.148;2023-09-19T01:59:21;6.15;;;5.00;;
46284;SDS011;32018;59.182;18.148;2023-09-19T02:01:49;4.38;;;3.97;;
46284;SDS011;32018;59.182;18.148;2023-09-19T02:04:14;4.85;;;4.45;;
46284;SDS011;32018;59.182;18.148;2023-09-19T02:06:40;8.13;;;7.20;;
46284;SDS011;32018;59.182;18.148;2023-09-19T02:09:06;6.15;;;5.57;;
46284;SDS011;32018;59.182;18.148;2023-09-19T02:11:31;11.82;;;6.97;;
46284;SDS011;32018;59.182;18.148;2023-09-19T02:13:57;6.83;;;6.27;;
46284;SDS011;32018;59.182;18.148;2023-09-19T02:16:22;6.50;;;5.93;;
46284;SDS011;32018;59.182;18.148;2023-09-19T02:18:48;10.23;;;9.33;;
46284;SDS011;32018;59.182;18.148;2023-09-19T02:21:14;5.82;;;5.32;;
46284;SDS011;32018;59.182;18.148;2023-09-19T02:23:40;9.23;;;8.43;;
46284;SDS011;32018;59.182;18.148;2023-09-19T02:26:06;4.93;;;4.63;;
46284;SDS011;32018;59.182;18.148;2023-09-19T02:28:31;8.83;;;8.00;;
46284;SDS011;32018;59.182;18.148;2023-09-19T02:30:57;6.38;;;5.97;;
46284;SDS011;32018;59.182;18.148;2023-09-19T02:33:22;5.93;;;5.43;;
46284;SDS011;32018;59.182;18.148;2023-09-19T02:35:47;5.87;;;5.27;;
46284;SDS011;32018;59.182;18.148;2023-09-19T02:38:13;8.60;;;7.80;;
46284;SDS011;32018;59.182;18.148;2023-09-19T02:40:39;10.88;;;9.43;;
46284;SDS011;32018;59.182;18.148;2023-09-19T02:43:04;10.13;;;7.03;;
46284;SDS011;32018;59.182;18.148;2023-09-19T02:45:30;7.03;;;6.43;;
46284;SDS011;32018;59.182;18.148;2023-09-19T02:47:55;7.30;;;5.28;;
46284;SDS011;32018;59.182;18.148;2023-09-19T02:50:20;5.90;;;4.78;;
46284;SDS011;32018;59.182;18.148;2023-09-19T02:52:46;9.87;;;6.90;;
46284;SDS011;32018;59.182;18.148;2023-09-19T02:55:15;6.82;;;6.22;;
46284;SDS011;32018;59.182;18.148;2023-09-19T02:57:46;10.70;;;9.65;;
46284;SDS011;32018;59.182;18.148;2023-09-19T03:00:11;9.15;;;8.23;;
46284;SDS011;32018;59.182;18.148;2023-09-19T03:02:37;11.57;;;10.45;;
46284;SDS011;32018;59.182;18.148;2023-09-19T03:05:04;7.22;;;6.57;;
46284;SDS011;32018;59.182;18.148;2023-09-19T03:07:30;8.88;;;8.07;;
46284;SDS011;32018;59.182;18.148;2023-09-19T03:09:56;6.80;;;6.25;;
46284;SDS011;32018;59.182;18.148;2023-09-19T03:12:21;8.90;;;8.10;;
46284;SDS011;32018;59.182;18.148;2023-09-19T03:14:46;9.93;;;9.10;;
46284;SDS011;32018;59.182;18.148;2023-09-19T03:17:11;8.83;;;7.97;;
46284;SDS011;32018;59.182;18.148;2023-09-19T03:19:39;8.32;;;7.57;;
46284;SDS011;32018;59.182;18.148;2023-09-19T03:22:04;9.73;;;8.93;;
46284;SDS011;32018;59.182;18.148;2023-09-19T03:24:29;11.13;;;10.10;;
46284;SDS011;32018;59.182;18.148;2023-09-19T03:26:56;10.50;;;9.48;;
46284;SDS011;32018;59.182;18.148;2023-09-19T03:29:22;12.80;;;11.73;;
46284;SDS011;32018;59.182;18.148;2023-09-19T03:31:47;10.13;;;7.45;;
46284;SDS011;32018;59.182;18.148;2023-09-19T03:34:12;10.50;;;9.73;;
46284;SDS011;32018;59.182;18.148;2023-09-19T03:36:37;9.00;;;7.93;;
46284;SDS011;32018;59.182;18.148;2023-09-19T03:39:03;6.90;;;6.45;;
46284;SDS011;32018;59.182;18.148;2023-09-19T03:41:30;6.82;;;6.22;;
46284;SDS011;32018;59.182;18.148;2023-09-19T03:43:56;10.50;;;9.65;;
46284;SDS011;32018;59.182;18.148;2023-09-19T03:46:21;10.73;;;9.52;;
46284;SDS011;32018;59.182;18.148;2023-09-19T03:48:46;8.53;;;8.03;;
46284;SDS011;32018;59.182;18.148;2023-09-19T03:51:11;12.80;;;11.37;;
46284;SDS011;32018;59.182;18.148;2023-09-19T03:53:37;7.60;;;6.90;;
46284;SDS011;32018;59.182;18.148;2023-09-19T03:56:02;11.00;;;9.98;;
46284;SDS011;32018;59.182;18.148;2023-09-19T03:58:27;11.73;;;9.50;;
46284;SDS011;32018;59.182;18.148;2023-09-19T04:00:56;6.85;;;6.45;;
46284;SDS011;32018;59.182;18.148;2023-09-19T04:03:21;7.22;;;6.72;;
46284;SDS011;32018;59.182;18.148;2023-09-19T04:05:46;12.63;;;11.52;;
46284;SDS011;32018;59.182;18.148;2023-09-19T04:08:15;10.90;;;10.00;;
46284;SDS011;32018;59.182;18.148;2023-09-19T04:10:43;9.85;;;7.43;;
46284;SDS011;32018;59.182;18.148;2023-09-19T04:13:10;11.70;;;10.60;;
46284;SDS011;32018;59.182;18.148;2023-09-19T04:15:35;6.78;;;6.32;;
46284;SDS011;32018;59.182;18.148;2023-09-19T04:18:01;11.80;;;10.77;;
46284;SDS011;32018;59.182;18.148;2023-09-19T04:20:28;8.38;;;7.78;;
46284;SDS011;32018;59.182;18.148;2023-09-19T04:22:53;7.80;;;7.30;;
46284;SDS011;32018;59.182;18.148;2023-09-19T04:25:19;12.00;;;11.07;;
46284;SDS011;32018;59.182;18.148;2023-09-19T04:27:45;12.32;;;11.38;;
46284;SDS011;32018;59.182;18.148;2023-09-19T04:30:11;12.25;;;11.30;;
46284;SDS011;32018;59.182;18.148;2023-09-19T04:32:39;14.48;;;13.38;;
46284;SDS011;32018;59.182;18.148;2023-09-19T04:35:05;11.60;;;10.75;;
46284;SDS011;32018;59.182;18.148;2023-09-19T04:37:33;14.50;;;13.30;;
46284;SDS011;32018;59.182;18.148;2023-09-19T04:39:58;15.48;;;14.27;;
46284;SDS011;32018;59.182;18.148;2023-09-19T04:42:23;11.13;;;10.00;;
46284;SDS011;32018;59.182;18.148;2023-09-19T04:44:50;13.88;;;12.68;;
46284;SDS011;32018;59.182;18.148;2023-09-19T04:47:18;16.58;;;15.40;;
46284;SDS011;32018;59.182;18.148;2023-09-19T04:49:44;13.95;;;12.85;;
46284;SDS011;32018;59.182;18.148;2023-09-19T04:52:09;10.43;;;9.73;;
46284;SDS011;32018;59.182;18.148;2023-09-19T04:54:34;10.40;;;9.53;;
46284;SDS011;32018;59.182;18.148;2023-09-19T04:56:59;15.67;;;14.57;;
46284;SDS011;32018;59.182;18.148;2023-09-19T04:59:27;14.07;;;12.98;;
46284;SDS011;32018;59.182;18.148;2023-09-19T05:01:53;15.05;;;13.95;;
46284;SDS011;32018;59.182;18.148;2023-09-19T05:04:18;15.93;;;14.93;;
46284;SDS011;32018;59.182;18.148;2023-09-19T05:06:43;13.03;;;12.13;;
46284;SDS011;32018;59.182;18.148;2023-09-19T05:09:09;11.77;;;10.33;;
46284;SDS011;32018;59.182;18.148;2023-09-19T05:11:35;15.55;;;14.20;;
46284;SDS011;32018;59.182;18.148;2023-09-19T05:14:01;7.85;;;7.35;;
46284;SDS011;32018;59.182;18.148;2023-09-19T05:16:29;11.32;;;10.68;;
46284;SDS011;32018;59.182;18.148;2023-09-19T05:18:56;14.93;;;13.52;;
46284;SDS011;32018;59.182;18.148;2023-09-19T05:21:21;15.77;;;14.48;;
46284;SDS011;32018;59.182;18.148;2023-09-19T05:23:48;13.70;;;12.30;;
46284;SDS011;32018;59.182;18.148;2023-09-19T05:26:14;16.30;;;14.82;;
46284;SDS011;32018;59.182;18.148;2023-09-19T05:28:41;16.10;;;14.57;;
46284;SDS011;32018;59.182;18.148;2023-09-19T05:31:08;15.10;;;13.95;;
46284;SDS011;32018;59.182;18.148;2023-09-19T05:33:33;9.03;;;8.43;;
46284;SDS011;32018;59.182;18.148;2023-09-19T05:35:58;8.50;;;7.90;;
46284;SDS011;32018;59.182;18.148;2023-09-19T05:38:23;14.30;;;13.20;;
46284;SDS011;32018;59.182;18.148;2023-09-19T05:40:51;15.85;;;14.63;;
46284;SDS011;32018;59.182;18.148;2023-09-19T05:43:16;10.43;;;9.73;;
46284;SDS011;32018;59.182;18.148;2023-09-19T05:45:41;15.90;;;14.50;;
46284;SDS011;32018;59.182;18.148;2023-09-19T05:48:08;16.33;;;14.80;;
46284;SDS011;32018;59.182;18.148;2023-09-19T05:50:33;16.27;;;14.65;;
46284;SDS011;32018;59.182;18.148;2023-09-19T05:52:59;15.95;;;14.68;;
46284;SDS011;32018;59.182;18.148;2023-09-19T05:55:24;17.05;;;15.85;;
46284;SDS011;32018;59.182;18.148;2023-09-19T05:57:53;15.77;;;14.77;;
46284;SDS011;32018;59.182;18.148;2023-09-19T06:00:22;9.55;;;8.90;;
46284;SDS011;32018;59.182;18.148;2023-09-19T06:02:51;16.13;;;15.02;;
46284;SDS011;32018;59.182;18.148;2023-09-19T06:05:17;17.17;;;15.88;;
46284;SDS011;32018;59.182;18.148;2023-09-19T06:07:42;12.93;;;12.07;;
46284;SDS011;32018;59.182;18.148;2023-09-19T06:10:07;16.33;;;15.27;;
46284;SDS011;32018;59.182;18.148;2023-09-19T06:12:33;15.63;;;14.10;;
46284;SDS011;32018;59.182;18.148;2023-09-19T06:15:03;7.38;;;6.93;;
46284;SDS011;32018;59.182;18.148;2023-09-19T06:17:30;17.27;;;16.02;;
46284;SDS011;32018;59.182;18.148;2023-09-19T06:19:56;17.48;;;16.13;;
46284;SDS011;32018;59.182;18.148;2023-09-19T06:22:21;19.83;;;15.20;;
46284;SDS011;32018;59.182;18.148;2023-09-19T06:24:46;17.42;;;15.77;;
46284;SDS011;32018;59.182;18.148;2023-09-19T06:27:12;16.15;;;14.77;;
46284;SDS011;32018;59.182;18.148;2023-09-19T06:29:37;13.65;;;12.65;;
46284;SDS011;32018;59.182;18.148;2023-09-19T06:32:06;13.27;;;12.27;;
46284;SDS011;32018;59.182;18.148;2023-09-19T06:34:32;8.80;;;8.30;;
46284;SDS011;32018;59.182;18.148;2023-09-19T06:36:58;14.07;;;12.90;;
46284;SDS011;32018;59.182;18.148;2023-09-19T06:39:23;16.15;;;14.85;;
46284;SDS011;32018;59.182;18.148;2023-09-19T06:41:48;13.00;;;12.10;;
46284;SDS011;32018;59.182;18.148;2023-09-19T06:44:14;12.57;;;11.65;;
46284;SDS011;32018;59.182;18.148;2023-09-19T06:46:39;19.05;;;17.45;;
46284;SDS011;32018;59.182;18.148;2023-09-19T06:49:07;19.35;;;17.38;;
46284;SDS011;32018;59.182;18.148;2023-09-19T06:51:32;19.87;;;17.70;;
46284;SDS011;32018;59.182;18.148;2023-09-19T06:53:59;15.00;;;13.90;;
46284;SDS011;32018;59.182;18.148;2023-09-19T06:56:24;15.43;;;14.50;;
46284;SDS011;32018;59.182;18.148;2023-09-19T06:58:50;13.50;;;12.68;;
46284;SDS011;32018;59.182;18.148;2023-09-19T07:01:15;11.10;;;10.52;;
46284;SDS011;32018;59.182;18.148;2023-09-19T07:03:41;12.33;;;11.47;;
46284;SDS011;32018;59.182;18.148;2023-09-19T07:06:06;14.23;;;13.33;;
46284;SDS011;32018;59.182;18.148;2023-09-19T07:08:32;13.13;;;12.13;;
46284;SDS011;32018;59.182;18.148;2023-09-19T07:10:57;14.17;;;13.30;;
46284;SDS011;32018;59.182;18.148;2023-09-19T07:13:22;14.52;;;13.48;;
46284;SDS011;32018;59.182;18.148;2023-09-19T07:15:49;15.15;;;14.10;;
46284;SDS011;32018;59.182;18.148;2023-09-19T07:18:15;13.10;;;12.10;;
46284;SDS011;32018;59.182;18.148;2023-09-19T07:20:41;13.63;;;12.57;;
46284;SDS011;32018;59.182;18.148;2023-09-19T07:23:13;13.30;;;12.40;;
46284;SDS011;32018;59.182;18.148;2023-09-19T07:25:39;11.77;;;10.98;;
46284;SDS011;32018;59.182;18.148;2023-09-19T07:28:05;9.77;;;9.10;;
46284;SDS011;32018;59.182;18.148;2023-09-19T07:30:30;9.00;;;8.50;;
46284;SDS011;32018;59.182;18.148;2023-09-19T07:32:55;10.97;;;10.23;;
46284;SDS011;32018;59.182;18.148;2023-09-19T07:35:21;12.10;;;11.07;;
46284;SDS011;32018;59.182;18.148;2023-09-19T07:37:46;15.85;;;14.75;;
46284;SDS011;32018;59.182;18.148;2023-09-19T07:40:15;13.95;;;12.65;;
46284;SDS011;32018;59.182;18.148;2023-09-19T07:42:40;13.73;;;12.50;;
46284;SDS011;32018;59.182;18.148;2023-09-19T07:45:06;16.20;;;15.00;;
46284;SDS011;32018;59.182;18.148;2023-09-19T07:47:32;14.07;;;12.98;;
46284;SDS011;32018;59.182;18.148;2023-09-19T07:49:58;13.83;;;12.87;;
46284;SDS011;32018;59.182;18.148;2023-09-19T07:52:24;14.25;;;13.05;;
46284;SDS011;32018;59.182;18.148;2023-09-19T07:54:49;14.45;;;13.32;;
46284;SDS011;32018;59.182;18.148;2023-09-19T07:57:14;16.50;;;13.75;;
46284;SDS011;32018;59.182;18.148;2023-09-19T07:59:40;19.42;;;17.42;;
46284;SDS011;32018;59.182;18.148;2023-09-19T08:02:07;17.38;;;14.45;;
46284;SDS011;32018;59.182;18.148;2023-09-19T08:04:34;13.25;;;12.43;;
46284;SDS011;32018;59.182;18.148;2023-09-19T08:06:59;14.63;;;13.30;;
46284;SDS011;32018;59.182;18.148;2023-09-19T08:09:25;12.80;;;11.90;;
46284;SDS011;32018;59.182;18.148;2023-09-19T08:11:51;15.20;;;14.18;;
46284;SDS011;32018;59.182;18.148;2023-09-19T08:14:16;14.05;;;12.70;;
46284;SDS011;32018;59.182;18.148;2023-09-19T08:16:41;17.38;;;15.88;;
46284;SDS011;32018;59.182;18.148;2023-09-19T08:19:08;13.65;;;12.65;;
46284;SDS011;32018;59.182;18.148;2023-09-19T08:21:33;13.65;;;12.57;;
46284;SDS011;32018;59.182;18.148;2023-09-19T08:23:58;12.83;;;11.73;;
46284;SDS011;32018;59.182;18.148;2023-09-19T08:26:23;15.48;;;14.18;;
46284;SDS011;32018;59.182;18.148;2023-09-19T08:28:49;16.73;;;15.30;;
46284;SDS011;32018;59.182;18.148;2023-09-19T08:31:16;16.58;;;14.98;;
46284;SDS011;32018;59.182;18.148;2023-09-19T08:33:43;15.55;;;14.15;;
46284;SDS011;32018;59.182;18.148;2023-09-19T08:36:12;15.77;;;14.57;;
46284;SDS011;32018;59.182;18.148;2023-09-19T08:38:39;14.75;;;13.40;;
46284;SDS011;32018;59.182;18.148;2023-09-19T08:41:07;15.23;;;14.13;;
46284;SDS011;32018;59.182;18.148;2023-09-19T08:43:33;12.30;;;11.40;;
46284;SDS011;32018;59.182;18.148;2023-09-19T08:48:29;11.27;;;10.55;;
46284;SDS011;32018;59.182;18.148;2023-09-19T08:53:26;14.68;;;12.80;;
46284;SDS011;32018;59.182;18.148;2023-09-19T08:55:52;12.93;;;12.00;;
46284;SDS011;32018;59.182;18.148;2023-09-19T08:58:21;15.38;;;13.23;;
46284;SDS011;32018;59.182;18.148;2023-09-19T09:00:48;13.65;;;12.60;;
46284;SDS011;32018;59.182;18.148;2023-09-19T09:03:14;17.77;;;13.35;;
46284;SDS011;32018;59.182;18.148;2023-09-19T09:05:40;14.15;;;12.88;;
46284;SDS011;32018;59.182;18.148;2023-09-19T09:08:07;13.90;;;12.48;;
46284;SDS011;32018;59.182;18.148;2023-09-19T09:10:32;15.80;;;14.57;;
46284;SDS011;32018;59.182;18.148;2023-09-19T09:12:57;13.20;;;12.27;;
46284;SDS011;32018;59.182;18.148;2023-09-19T09:15:23;14.90;;;13.68;;
46284;SDS011;32018;59.182;18.148;2023-09-19T09:17:49;13.40;;;12.48;;
46284;SDS011;32018;59.182;18.148;2023-09-19T09:20:15;15.02;;;13.88;;
46284;SDS011;32018;59.182;18.148;2023-09-19T09:22:53;15.38;;;13.75;;
46284;SDS011;32018;59.182;18.148;2023-09-19T09:25:19;13.05;;;12.05;;
46284;SDS011;32018;59.182;18.148;2023-09-19T09:28:09;11.52;;;10.73;;
46284;SDS011;32018;59.182;18.148;2023-09-19T09:30:35;14.32;;;12.77;;
46284;SDS011;32018;59.182;18.148;2023-09-19T09:33:08;14.50;;;13.30;;
46284;SDS011;32018;59.182;18.148;2023-09-19T09:35:35;11.90;;;11.00;;
46284;SDS011;32018;59.182;18.148;2023-09-19T09:38:01;13.65;;;12.48;;
46284;SDS011;32018;59.182;18.148;2023-09-19T09:40:45;11.73;;;11.02;;
46284;SDS011;32018;59.182;18.148;2023-09-19T09:43:25;13.35;;;12.35;;
46284;SDS011;32018;59.182;18.148;2023-09-19T09:45:57;12.98;;;11.88;;
46284;SDS011;32018;59.182;18.148;2023-09-19T09:48:35;15.15;;;12.20;;
46284;SDS011;32018;59.182;18.148;2023-09-19T09:51:03;13.32;;;11.98;;
46284;SDS011;32018;59.182;18.148;2023-09-19T09:53:32;11.55;;;10.68;;
46284;SDS011;32018;59.182;18.148;2023-09-19T09:56:07;10.75;;;9.95;;
46284;SDS011;32018;59.182;18.148;2023-09-19T09:58:35;13.60;;;10.07;;
46284;SDS011;32018;59.182;18.148;2023-09-19T10:01:02;14.65;;;11.30;;
46284;SDS011;32018;59.182;18.148;2023-09-19T10:03:40;10.35;;;9.48;;
46284;SDS011;32018;59.182;18.148;2023-09-19T10:06:12;11.68;;;10.48;;
46284;SDS011;32018;59.182;18.148;2023-09-19T10:11:30;11.55;;;10.57;;
46284;SDS011;32018;59.182;18.148;2023-09-19T10:13:55;11.13;;;8.30;;
46284;SDS011;32018;59.182;18.148;2023-09-19T10:16:21;8.70;;;8.02;;
46284;SDS011;32018;59.182;18.148;2023-09-19T10:18:47;8.27;;;7.63;;
46284;SDS011;32018;59.182;18.148;2023-09-19T10:21:17;11.13;;;7.60;;
46284;SDS011;32018;59.182;18.148;2023-09-19T10:23:47;8.05;;;7.35;;
46284;SDS011;32018;59.182;18.148;2023-09-19T10:26:15;6.25;;;5.85;;
46284;SDS011;32018;59.182;18.148;2023-09-19T10:28:42;6.82;;;6.22;;
46284;SDS011;32018;59.182;18.148;2023-09-19T10:31:07;7.40;;;6.80;;
46284;SDS011;32018;59.182;18.148;2023-09-19T10:33:35;9.52;;;6.05;;
46284;SDS011;32018;59.182;18.148;2023-09-19T10:36:02;7.07;;;6.38;;
46284;SDS011;32018;59.182;18.148;2023-09-19T10:38:29;6.75;;;6.07;;
46284;SDS011;32018;59.182;18.148;2023-09-19T10:40:56;5.93;;;5.53;;
46284;SDS011;32018;59.182;18.148;2023-09-19T10:43:25;5.43;;;5.03;;
46284;SDS011;32018;59.182;18.148;2023-09-19T10:45:51;9.55;;;5.35;;
46284;SDS011;32018;59.182;18.148;2023-09-19T10:48:18;5.38;;;5.05;;
46284;SDS011;32018;59.182;18.148;2023-09-19T10:56:32;5.82;;;4.05;;
46284;SDS011;32018;59.182;18.148;2023-09-19T11:01:43;3.95;;;3.55;;
46284;SDS011;32018;59.182;18.148;2023-09-19T11:04:34;3.53;;;2.92;;
46284;SDS011;32018;59.182;18.148;2023-09-19T11:07:07;8.68;;;3.28;;
46284;SDS011;32018;59.182;18.148;2023-09-19T11:09:48;3.65;;;3.30;;
46284;SDS011;32018;59.182;18.148;2023-09-19T11:14:54;3.90;;;3.13;;
46284;SDS011;32018;59.182;18.148;2023-09-19T11:30:30;4.00;;;2.60;;
46284;SDS011;32018;59.182;18.148;2023-09-19T11:36:12;2.00;;;1.80;;
46284;SDS011;32018;59.182;18.148;2023-09-19T11:43:50;2.78;;;2.22;;
46284;SDS011;32018;59.182;18.148;2023-09-19T11:46:16;2.55;;;2.35;;
46284;SDS011;32018;59.182;18.148;2023-09-19T11:48:47;2.40;;;1.80;;
46284;SDS011;32018;59.182;18.148;2023-09-19T11:51:17;1.80;;;1.70;;
46284;SDS011;32018;59.182;18.148;2023-09-19T11:53:51;1.90;;;1.33;;
46284;SDS011;32018;59.182;18.148;2023-09-19T11:56:17;2.25;;;1.40;;
46284;SDS011;32018;59.182;18.148;2023-09-19T11:58:43;1.83;;;1.33;;
46284;SDS011;32018;59.182;18.148;2023-09-19T12:01:10;1.10;;;1.00;;
46284;SDS011;32018;59.182;18.148;2023-09-19T12:03:46;1.92;;;1.10;;
46284;SDS011;32018;59.182;18.148;2023-09-19T12:06:13;1.10;;;0.80;;
46284;SDS011;32018;59.182;18.148;2023-09-19T12:08:39;1.75;;;1.27;;
46284;SDS011;32018;59.182;18.148;2023-09-19T12:11:07;3.35;;;1.27;;
46284;SDS011;32018;59.182;18.148;2023-09-19T12:13:35;1.95;;;1.13;;
46284;SDS011;32018;59.182;18.148;2023-09-19T12:16:10;1.42;;;1.20;;
46284;SDS011;32018;59.182;18.148;2023-09-19T12:18:36;5.53;;;1.30;;
46284;SDS011;32018;59.182;18.148;2023-09-19T12:21:01;1.63;;;1.00;;
46284;SDS011;32018;59.182;18.148;2023-09-19T12:23:29;3.15;;;1.00;;
46284;SDS011;32018;59.182;18.148;2023-09-19T12:25:55;2.53;;;1.00;;
46284;SDS011;32018;59.182;18.148;2023-09-19T12:28:22;0.95;;;0.80;;
46284;SDS011;32018;59.182;18.148;2023-09-19T12:30:50;1.85;;;1.10;;
46284;SDS011;32018;59.182;18.148;2023-09-19T12:33:20;1.60;;;1.30;;
46284;SDS011;32018;59.182;18.148;2023-09-19T12:35:46;1.20;;;1.10;;
46284;SDS011;32018;59.182;18.148;2023-09-19T12:38:21;1.00;;;0.90;;
46284;SDS011;32018;59.182;18.148;2023-09-19T12:40:49;1.00;;;0.90;;
46284;SDS011;32018;59.182;18.148;2023-09-19T12:43:16;1.83;;;0.90;;
46284;SDS011;32018;59.182;18.148;2023-09-19T12:45:42;1.80;;;1.00;;
46284;SDS011;32018;59.182;18.148;2023-09-19T12:48:25;0.90;;;0.90;;
46284;SDS011;32018;59.182;18.148;2023-09-19T12:51:05;1.67;;;1.00;;
46284;SDS011;32018;59.182;18.148;2023-09-19T12:53:34;2.42;;;1.00;;
46284;SDS011;32018;59.182;18.148;2023-09-19T12:56:03;1.90;;;1.00;;
46284;SDS011;32018;59.182;18.148;2023-09-19T12:58:32;3.50;;;1.10;;
46284;SDS011;32018;59.182;18.148;2023-09-19T13:00:58;3.08;;;0.80;;
46284;SDS011;32018;59.182;18.148;2023-09-19T13:03:25;3.60;;;1.00;;
46284;SDS011;32018;59.182;18.148;2023-09-19T13:05:51;1.55;;;1.10;;
46284;SDS011;32018;59.182;18.148;2023-09-19T13:08:23;3.78;;;1.23;;
46284;SDS011;32018;59.182;18.148;2023-09-19T13:14:21;3.05;;;1.10;;
46284;SDS011;32018;59.182;18.148;2023-09-19T13:16:20;1.05;;;0.90;;
46284;SDS011;32018;59.182;18.148;2023-09-19T13:18:53;1.60;;;1.10;;
46284;SDS011;32018;59.182;18.148;2023-09-19T13:21:28;2.63;;;1.38;;
46284;SDS011;32018;59.182;18.148;2023-09-19T13:23:55;1.83;;;1.20;;
46284;SDS011;32018;59.182;18.148;2023-09-19T13:26:27;1.48;;;0.90;;
46284;SDS011;32018;59.182;18.148;2023-09-19T13:28:53;2.80;;;1.25;;
46284;SDS011;32018;59.182;18.148;2023-09-19T13:31:19;2.15;;;1.40;;
46284;SDS011;32018;59.182;18.148;2023-09-19T13:33:44;1.77;;;1.33;;
46284;SDS011;32018;59.182;18.148;2023-09-19T13:36:10;2.97;;;1.55;;
46284;SDS011;32018;59.182;18.148;2023-09-19T13:38:36;2.28;;;1.20;;
46284;SDS011;32018;59.182;18.148;2023-09-19T13:41:02;3.13;;;1.20;;
46284;SDS011;32018;59.182;18.148;2023-09-19T13:43:27;1.77;;;1.20;;
46284;SDS011;32018;59.182;18.148;2023-09-19T13:45:53;1.80;;;1.20;;
46284;SDS011;32018;59.182;18.148;2023-09-19T13:48:19;1.60;;;1.20;;
46284;SDS011;32018;59.182;18.148;2023-09-19T13:50:47;3.10;;;1.00;;
46284;SDS011;32018;59.182;18.148;2023-09-19T13:53:12;2.33;;;1.40;;
46284;SDS011;32018;59.182;18.148;2023-09-19T13:55:38;1.90;;;1.25;;
46284;SDS011;32018;59.182;18.148;2023-09-19T13:58:03;2.78;;;1.13;;
46284;SDS011;32018;59.182;18.148;2023-09-19T14:00:31;3.05;;;1.35;;
46284;SDS011;32018;59.182;18.148;2023-09-19T14:02:59;3.15;;;1.10;;
46284;SDS011;32018;59.182;18.148;2023-09-19T14:05:25;2.80;;;1.48;;
46284;SDS011;32018;59.182;18.148;2023-09-19T14:07:53;3.70;;;1.38;;
46284;SDS011;32018;59.182;18.148;2023-09-19T14:10:19;2.72;;;1.30;;
46284;SDS011;32018;59.182;18.148;2023-09-19T14:12:45;2.17;;;1.45;;
46284;SDS011;32018;59.182;18.148;2023-09-19T14:15:10;1.90;;;1.10;;
46284;SDS011;32018;59.182;18.148;2023-09-19T14:17:35;2.42;;;1.20;;
46284;SDS011;32018;59.182;18.148;2023-09-19T14:20:01;3.50;;;1.60;;
46284;SDS011;32018;59.182;18.148;2023-09-19T14:22:26;4.70;;;1.50;;
46284;SDS011;32018;59.182;18.148;2023-09-19T14:24:51;3.05;;;1.45;;
46284;SDS011;32018;59.182;18.148;2023-09-19T14:27:17;1.67;;;1.13;;
46284;SDS011;32018;59.182;18.148;2023-09-19T14:29:43;8.13;;;1.33;;
46284;SDS011;32018;59.182;18.148;2023-09-19T14:32:08;1.85;;;1.15;;
46284;SDS011;32018;59.182;18.148;2023-09-19T14:34:33;2.27;;;1.30;;
46284;SDS011;32018;59.182;18.148;2023-09-19T14:36:58;2.90;;;1.20;;
46284;SDS011;32018;59.182;18.148;2023-09-19T14:39:24;3.17;;;1.33;;
46284;SDS011;32018;59.182;18.148;2023-09-19T14:41:50;1.50;;;0.93;;
46284;SDS011;32018;59.182;18.148;2023-09-19T14:44:15;1.95;;;1.15;;
46284;SDS011;32018;59.182;18.148;2023-09-19T14:46:41;2.95;;;1.55;;
46284;SDS011;32018;59.182;18.148;2023-09-19T14:49:06;1.73;;;1.30;;
46284;SDS011;32018;59.182;18.148;2023-09-19T14:51:31;1.38;;;0.88;;
46284;SDS011;32018;59.182;18.148;2023-09-19T14:53:57;1.83;;;0.90;;
46284;SDS011;32018;59.182;18.148;2023-09-19T14:56:22;2.63;;;1.08;;
46284;SDS011;32018;59.182;18.148;2023-09-19T14:58:48;3.13;;;1.13;;
46284;SDS011;32018;59.182;18.148;2023-09-19T15:01:14;1.93;;;1.10;;
46284;SDS011;32018;59.182;18.148;2023-09-19T15:03:40;2.47;;;1.23;;
46284;SDS011;32018;59.182;18.148;2023-09-19T15:06:06;1.73;;;1.20;;
46284;SDS011;32018;59.182;18.148;2023-09-19T15:08:32;2.92;;;1.02;;
46284;SDS011;32018;59.182;18.148;2023-09-19T15:10:59;2.45;;;1.13;;
46284;SDS011;32018;59.182;18.148;2023-09-19T15:13:28;2.50;;;1.40;;
46284;SDS011;32018;59.182;18.148;2023-09-19T15:16:00;2.08;;;1.00;;
46284;SDS011;32018;59.182;18.148;2023-09-19T15:18:27;2.58;;;1.10;;
46284;SDS011;32018;59.182;18.148;2023-09-19T15:20:52;4.22;;;1.25;;
46284;SDS011;32018;59.182;18.148;2023-09-19T15:23:18;2.90;;;1.15;;
46284;SDS011;32018;59.182;18.148;2023-09-19T15:25:49;1.40;;;1.00;;